Terminal Aerodrome Forecast
Issued by NWS Grand Rapids, MI

Home | Current Version | Previous Version | Text Only | Print | Product List | Glossary On
Versions: 1 2 3 4 5 6 7 8 9 10 11 12 13 14 15 16 17
461
FTUS43 KGRR 300804 AAB
TAFGRR
TAF AMD
KGRR 300804Z 3008/0106 05012KT 2SM -RA BR OVC006
     FM301500 06012G18KT 4SM -RA BR OVC008
     FM010000 06012KT 4SM -RA BR OVC008=

USA.gov is the U.S. government's official web portal to all federal, state and local government web resources and services.